sensor_id;sensor_type;location;lat;lon;timestamp;temperature;humidity
6738;DHT22;3406;49.902;8.596;2023-04-02T00:02:25;10.70;96.40
6738;DHT22;3406;49.902;8.596;2023-04-02T00:05:24;10.70;96.50
6738;DHT22;3406;49.902;8.596;2023-04-02T00:07:56;10.70;96.70
6738;DHT22;3406;49.902;8.596;2023-04-02T00:10:31;10.70;96.70
6738;DHT22;3406;49.902;8.596;2023-04-02T00:13:05;10.60;96.80
6738;DHT22;3406;49.902;8.596;2023-04-02T00:15:41;10.60;96.90
6738;DHT22;3406;49.902;8.596;2023-04-02T00:18:09;10.60;97.10
6738;DHT22;3406;49.902;8.596;2023-04-02T00:20:41;10.50;97.30
6738;DHT22;3406;49.902;8.596;2023-04-02T00:23:10;10.50;97.50
6738;DHT22;3406;49.902;8.596;2023-04-02T00:25:39;10.50;97.60
6738;DHT22;3406;49.902;8.596;2023-04-02T00:28:11;10.50;97.70
6738;DHT22;3406;49.902;8.596;2023-04-02T00:30:46;10.50;97.80
6738;DHT22;3406;49.902;8.596;2023-04-02T00:33:14;10.50;97.90
6738;DHT22;3406;49.902;8.596;2023-04-02T00:35:42;10.50;98.30
6738;DHT22;3406;49.902;8.596;2023-04-02T00:38:17;10.50;98.10
6738;DHT22;3406;49.902;8.596;2023-04-02T00:40:45;10.40;98.20
6738;DHT22;3406;49.902;8.596;2023-04-02T00:43:15;10.40;98.30
6738;DHT22;3406;49.902;8.596;2023-04-02T00:45:43;10.40;98.50
6738;DHT22;3406;49.902;8.596;2023-04-02T00:48:23;10.40;98.90
6738;DHT22;3406;49.902;8.596;2023-04-02T00:50:52;10.40;98.80
6738;DHT22;3406;49.902;8.596;2023-04-02T00:53:23;10.40;98.80
6738;DHT22;3406;49.902;8.596;2023-04-02T00:55:50;10.30;99.00
6738;DHT22;3406;49.902;8.596;2023-04-02T00:58:25;10.40;99.10
6738;DHT22;3406;49.902;8.596;2023-04-02T01:00:53;10.40;99.20
6738;DHT22;3406;49.902;8.596;2023-04-02T01:03:28;10.40;99.30
6738;DHT22;3406;49.902;8.596;2023-04-02T01:06:00;10.40;99.30
6738;DHT22;3406;49.902;8.596;2023-04-02T01:08:39;10.40;99.30
6738;DHT22;3406;49.902;8.596;2023-04-02T01:11:24;10.40;99.50
6738;DHT22;3406;49.902;8.596;2023-04-02T01:13:57;10.40;99.90
6738;DHT22;3406;49.902;8.596;2023-04-02T01:16:33;10.40;99.70
6738;DHT22;3406;49.902;8.596;2023-04-02T01:19:18;10.40;99.70
6738;DHT22;3406;49.902;8.596;2023-04-02T01:21:55;10.40;99.80
6738;DHT22;3406;49.902;8.596;2023-04-02T01:24:25;10.40;99.80
6738;DHT22;3406;49.902;8.596;2023-04-02T01:26:57;10.40;99.90
6738;DHT22;3406;49.902;8.596;2023-04-02T01:29:28;10.40;99.90
6738;DHT22;3406;49.902;8.596;2023-04-02T01:31:57;10.40;99.90
6738;DHT22;3406;49.902;8.596;2023-04-02T01:34:26;10.40;99.90
6738;DHT22;3406;49.902;8.596;2023-04-02T01:37:03;10.40;99.90
6738;DHT22;3406;49.902;8.596;2023-04-02T01:39:42;10.40;99.90
6738;DHT22;3406;49.902;8.596;2023-04-02T01:42:16;10.40;99.90
6738;DHT22;3406;49.902;8.596;2023-04-02T01:44:48;10.40;99.90
6738;DHT22;3406;49.902;8.596;2023-04-02T01:47:17;10.40;99.90
6738;DHT22;3406;49.902;8.596;2023-04-02T01:49:45;10.40;99.90
6738;DHT22;3406;49.902;8.596;2023-04-02T01:52:14;10.40;99.90
6738;DHT22;3406;49.902;8.596;2023-04-02T01:54:42;10.30;99.90
6738;DHT22;3406;49.902;8.596;2023-04-02T01:57:09;10.30;99.90
6738;DHT22;3406;49.902;8.596;2023-04-02T01:59:35;10.30;99.90
6738;DHT22;3406;49.902;8.596;2023-04-02T02:02:05;10.30;99.90
6738;DHT22;3406;49.902;8.596;2023-04-02T02:04:33;10.30;99.90
6738;DHT22;3406;49.902;8.596;2023-04-02T02:07:01;10.30;99.90
6738;DHT22;3406;49.902;8.596;2023-04-02T02:09:29;10.30;99.90
6738;DHT22;3406;49.902;8.596;2023-04-02T02:11:58;10.20;99.90
6738;DHT22;3406;49.902;8.596;2023-04-02T02:14:28;10.30;99.90
6738;DHT22;3406;49.902;8.596;2023-04-02T02:16:57;10.30;99.90
6738;DHT22;3406;49.902;8.596;2023-04-02T02:19:28;10.20;99.90
6738;DHT22;3406;49.902;8.596;2023-04-02T02:22:04;10.20;99.90
6738;DHT22;3406;49.902;8.596;2023-04-02T02:24:33;10.20;99.90
6738;DHT22;3406;49.902;8.596;2023-04-02T02:27:30;10.20;99.90
6738;DHT22;3406;49.902;8.596;2023-04-02T02:29:57;10.20;99.90
6738;DHT22;3406;49.902;8.596;2023-04-02T02:32:29;10.20;99.90
6738;DHT22;3406;49.902;8.596;2023-04-02T02:35:00;10.20;99.90
6738;DHT22;3406;49.902;8.596;2023-04-02T02:37:34;10.20;99.90
6738;DHT22;3406;49.902;8.596;2023-04-02T02:40:06;10.20;99.90
6738;DHT22;3406;49.902;8.596;2023-04-02T02:42:37;10.20;99.90
6738;DHT22;3406;49.902;8.596;2023-04-02T02:45:10;10.30;99.90
6738;DHT22;3406;49.902;8.596;2023-04-02T02:47:39;10.30;99.90
6738;DHT22;3406;49.902;8.596;2023-04-02T02:50:15;10.30;99.90
6738;DHT22;3406;49.902;8.596;2023-04-02T02:52:48;10.30;99.90
6738;DHT22;3406;49.902;8.596;2023-04-02T02:55:18;10.30;99.90
6738;DHT22;3406;49.902;8.596;2023-04-02T02:57:48;10.40;99.90
6738;DHT22;3406;49.902;8.596;2023-04-02T03:00:16;10.40;99.90
6738;DHT22;3406;49.902;8.596;2023-04-02T03:02:45;10.30;99.90
6738;DHT22;3406;49.902;8.596;2023-04-02T03:05:18;10.40;99.90
6738;DHT22;3406;49.902;8.596;2023-04-02T03:07:46;10.40;99.90
6738;DHT22;3406;49.902;8.596;2023-04-02T03:10:19;10.40;99.90
6738;DHT22;3406;49.902;8.596;2023-04-02T03:12:51;10.40;99.90
6738;DHT22;3406;49.902;8.596;2023-04-02T03:15:25;10.40;99.90
6738;DHT22;3406;49.902;8.596;2023-04-02T03:17:56;10.40;99.90
6738;DHT22;3406;49.902;8.596;2023-04-02T03:20:32;10.40;99.90
6738;DHT22;3406;49.902;8.596;2023-04-02T03:23:07;10.40;99.90
6738;DHT22;3406;49.902;8.596;2023-04-02T03:25:41;10.40;99.90
6738;DHT22;3406;49.902;8.596;2023-04-02T03:28:13;10.40;99.90
6738;DHT22;3406;49.902;8.596;2023-04-02T03:30:45;10.40;99.90
6738;DHT22;3406;49.902;8.596;2023-04-02T03:33:16;10.30;99.90
6738;DHT22;3406;49.902;8.596;2023-04-02T03:35:52;10.30;99.90
6738;DHT22;3406;49.902;8.596;2023-04-02T03:38:23;10.30;99.90
6738;DHT22;3406;49.902;8.596;2023-04-02T03:40:58;10.30;99.90
6738;DHT22;3406;49.902;8.596;2023-04-02T03:43:30;10.30;99.90
6738;DHT22;3406;49.902;8.596;2023-04-02T03:46:02;10.30;99.90
6738;DHT22;3406;49.902;8.596;2023-04-02T03:48:36;10.30;99.90
6738;DHT22;3406;49.902;8.596;2023-04-02T03:51:11;10.20;99.90
6738;DHT22;3406;49.902;8.596;2023-04-02T03:53:42;10.20;99.90
6738;DHT22;3406;49.902;8.596;2023-04-02T03:56:10;10.20;99.90
6738;DHT22;3406;49.902;8.596;2023-04-02T03:58:46;10.20;99.90
6738;DHT22;3406;49.902;8.596;2023-04-02T04:01:21;10.20;99.90
6738;DHT22;3406;49.902;8.596;2023-04-02T04:03:52;10.10;99.90
6738;DHT22;3406;49.902;8.596;2023-04-02T04:06:24;10.10;99.90
6738;DHT22;3406;49.902;8.596;2023-04-02T04:08:55;10.10;99.90
6738;DHT22;3406;49.902;8.596;2023-04-02T04:11:27;10.20;99.90
6738;DHT22;3406;49.902;8.596;2023-04-02T04:14:00;10.10;99.90
6738;DHT22;3406;49.902;8.596;2023-04-02T04:16:31;10.10;99.90
6738;DHT22;3406;49.902;8.596;2023-04-02T04:19:02;10.10;99.90
6738;DHT22;3406;49.902;8.596;2023-04-02T04:21:32;10.10;99.90
6738;DHT22;3406;49.902;8.596;2023-04-02T04:24:04;10.20;99.90
6738;DHT22;3406;49.902;8.596;2023-04-02T04:26:38;10.20;99.90
6738;DHT22;3406;49.902;8.596;2023-04-02T04:29:13;10.20;99.90
6738;DHT22;3406;49.902;8.596;2023-04-02T04:31:44;10.20;99.90
6738;DHT22;3406;49.902;8.596;2023-04-02T04:34:17;10.20;99.90
6738;DHT22;3406;49.902;8.596;2023-04-02T04:36:49;10.20;99.90
6738;DHT22;3406;49.902;8.596;2023-04-02T04:39:24;10.20;99.90
6738;DHT22;3406;49.902;8.596;2023-04-02T04:41:55;10.20;99.90
6738;DHT22;3406;49.902;8.596;2023-04-02T04:44:25;10.20;99.90
6738;DHT22;3406;49.902;8.596;2023-04-02T04:46:57;10.20;99.90
6738;DHT22;3406;49.902;8.596;2023-04-02T04:49:29;10.20;99.90
6738;DHT22;3406;49.902;8.596;2023-04-02T04:52:04;10.20;99.90
6738;DHT22;3406;49.902;8.596;2023-04-02T04:54:36;10.10;99.90
6738;DHT22;3406;49.902;8.596;2023-04-02T04:57:05;10.10;99.90
6738;DHT22;3406;49.902;8.596;2023-04-02T04:59:40;10.10;99.90
6738;DHT22;3406;49.902;8.596;2023-04-02T05:02:11;10.10;99.90
6738;DHT22;3406;49.902;8.596;2023-04-02T05:04:42;10.10;99.90
6738;DHT22;3406;49.902;8.596;2023-04-02T05:07:14;10.10;99.90
6738;DHT22;3406;49.902;8.596;2023-04-02T05:09:44;10.20;99.90
6738;DHT22;3406;49.902;8.596;2023-04-02T05:12:18;10.10;99.90
6738;DHT22;3406;49.902;8.596;2023-04-02T05:14:50;10.10;99.90
6738;DHT22;3406;49.902;8.596;2023-04-02T05:17:22;10.10;99.90
6738;DHT22;3406;49.902;8.596;2023-04-02T05:19:52;10.10;99.90
6738;DHT22;3406;49.902;8.596;2023-04-02T05:22:28;10.10;99.90
6738;DHT22;3406;49.902;8.596;2023-04-02T05:25:06;10.10;99.90
6738;DHT22;3406;49.902;8.596;2023-04-02T05:27:38;10.10;99.90
6738;DHT22;3406;49.902;8.596;2023-04-02T05:30:12;10.10;99.90
6738;DHT22;3406;49.902;8.596;2023-04-02T05:32:44;10.10;99.90
6738;DHT22;3406;49.902;8.596;2023-04-02T05:35:17;10.10;99.90
6738;DHT22;3406;49.902;8.596;2023-04-02T05:37:46;10.10;99.90
6738;DHT22;3406;49.902;8.596;2023-04-02T05:40:20;10.10;99.90
6738;DHT22;3406;49.902;8.596;2023-04-02T05:42:49;10.20;99.90
6738;DHT22;3406;49.902;8.596;2023-04-02T05:45:23;10.20;99.90
6738;DHT22;3406;49.902;8.596;2023-04-02T05:47:53;10.20;99.90
6738;DHT22;3406;49.902;8.596;2023-04-02T05:50:27;10.20;99.90
6738;DHT22;3406;49.902;8.596;2023-04-02T05:53:00;10.30;99.90
6738;DHT22;3406;49.902;8.596;2023-04-02T05:55:44;10.30;99.90
6738;DHT22;3406;49.902;8.596;2023-04-02T05:58:19;10.30;99.90
6738;DHT22;3406;49.902;8.596;2023-04-02T06:01:04;10.30;99.90
6738;DHT22;3406;49.902;8.596;2023-04-02T06:03:41;10.30;99.90
6738;DHT22;3406;49.902;8.596;2023-04-02T06:06:14;10.30;99.90
6738;DHT22;3406;49.902;8.596;2023-04-02T06:08:49;10.30;99.90
6738;DHT22;3406;49.902;8.596;2023-04-02T06:11:20;10.30;99.90
6738;DHT22;3406;49.902;8.596;2023-04-02T06:13:48;10.40;99.90
6738;DHT22;3406;49.902;8.596;2023-04-02T06:16:15;10.40;99.90
6738;DHT22;3406;49.902;8.596;2023-04-02T06:18:42;10.40;99.90
6738;DHT22;3406;49.902;8.596;2023-04-02T06:21:11;10.40;99.90
6738;DHT22;3406;49.902;8.596;2023-04-02T06:23:43;10.40;99.90
6738;DHT22;3406;49.902;8.596;2023-04-02T06:26:17;10.40;99.90
6738;DHT22;3406;49.902;8.596;2023-04-02T06:28:47;10.50;99.90
6738;DHT22;3406;49.902;8.596;2023-04-02T06:31:23;10.60;99.90
6738;DHT22;3406;49.902;8.596;2023-04-02T06:33:52;10.60;99.90
6738;DHT22;3406;49.902;8.596;2023-04-02T06:36:22;10.70;99.90
6738;DHT22;3406;49.902;8.596;2023-04-02T06:38:49;10.80;99.90
6738;DHT22;3406;49.902;8.596;2023-04-02T06:41:20;10.90;99.90
6738;DHT22;3406;49.902;8.596;2023-04-02T06:43:51;10.90;99.90
6738;DHT22;3406;49.902;8.596;2023-04-02T06:46:23;10.90;99.90
6738;DHT22;3406;49.902;8.596;2023-04-02T06:48:57;10.80;99.90
6738;DHT22;3406;49.902;8.596;2023-04-02T06:51:25;10.80;99.90
6738;DHT22;3406;49.902;8.596;2023-04-02T06:53:53;10.80;99.90
6738;DHT22;3406;49.902;8.596;2023-04-02T06:56:27;10.80;99.90
6738;DHT22;3406;49.902;8.596;2023-04-02T06:58:57;10.80;99.90
6738;DHT22;3406;49.902;8.596;2023-04-02T07:01:26;10.80;99.90
6738;DHT22;3406;49.902;8.596;2023-04-02T07:03:54;10.80;99.90
6738;DHT22;3406;49.902;8.596;2023-04-02T07:06:21;10.90;99.90
6738;DHT22;3406;49.902;8.596;2023-04-02T07:08:48;10.80;99.90
6738;DHT22;3406;49.902;8.596;2023-04-02T07:11:17;10.90;99.90
6738;DHT22;3406;49.902;8.596;2023-04-02T07:13:47;10.90;99.90
6738;DHT22;3406;49.902;8.596;2023-04-02T07:16:16;10.90;99.90
6738;DHT22;3406;49.902;8.596;2023-04-02T07:18:43;11.00;99.90
6738;DHT22;3406;49.902;8.596;2023-04-02T07:21:10;11.00;99.90
6738;DHT22;3406;49.902;8.596;2023-04-02T07:23:37;11.10;99.90
6738;DHT22;3406;49.902;8.596;2023-04-02T07:26:05;11.10;99.90
6738;DHT22;3406;49.902;8.596;2023-04-02T07:28:31;11.20;99.90
6738;DHT22;3406;49.902;8.596;2023-04-02T07:31:00;11.20;99.90
6738;DHT22;3406;49.902;8.596;2023-04-02T07:33:28;11.20;99.90
6738;DHT22;3406;49.902;8.596;2023-04-02T07:35:56;11.20;99.90
6738;DHT22;3406;49.902;8.596;2023-04-02T07:38:23;11.30;99.90
6738;DHT22;3406;49.902;8.596;2023-04-02T07:40:50;11.30;99.90
6738;DHT22;3406;49.902;8.596;2023-04-02T07:43:17;11.30;99.90
6738;DHT22;3406;49.902;8.596;2023-04-02T07:45:43;11.30;99.90
6738;DHT22;3406;49.902;8.596;2023-04-02T07:48:12;11.10;99.90
6738;DHT22;3406;49.902;8.596;2023-04-02T07:50:39;10.90;99.90
6738;DHT22;3406;49.902;8.596;2023-04-02T07:53:06;10.60;99.90
6738;DHT22;3406;49.902;8.596;2023-04-02T07:55:34;10.50;99.90
6738;DHT22;3406;49.902;8.596;2023-04-02T07:58:00;10.30;99.90
6738;DHT22;3406;49.902;8.596;2023-04-02T08:00:27;10.20;99.90
6738;DHT22;3406;49.902;8.596;2023-04-02T08:02:54;10.10;99.90
6738;DHT22;3406;49.902;8.596;2023-04-02T08:05:22;10.10;99.90
6738;DHT22;3406;49.902;8.596;2023-04-02T08:07:52;10.00;99.90
6738;DHT22;3406;49.902;8.596;2023-04-02T08:10:20;10.00;99.90
6738;DHT22;3406;49.902;8.596;2023-04-02T08:12:47;9.90;99.90
6738;DHT22;3406;49.902;8.596;2023-04-02T08:15:14;9.90;99.90
6738;DHT22;3406;49.902;8.596;2023-04-02T08:17:41;9.80;99.90
6738;DHT22;3406;49.902;8.596;2023-04-02T08:20:14;9.70;99.90
6738;DHT22;3406;49.902;8.596;2023-04-02T08:22:43;9.60;99.90
6738;DHT22;3406;49.902;8.596;2023-04-02T08:25:10;9.60;99.90
6738;DHT22;3406;49.902;8.596;2023-04-02T08:27:37;9.60;99.90
6738;DHT22;3406;49.902;8.596;2023-04-02T08:30:06;9.50;99.90
6738;DHT22;3406;49.902;8.596;2023-04-02T08:32:34;9.50;99.90
6738;DHT22;3406;49.902;8.596;2023-04-02T08:35:01;9.40;99.90
6738;DHT22;3406;49.902;8.596;2023-04-02T08:37:28;9.40;99.90
6738;DHT22;3406;49.902;8.596;2023-04-02T08:39:56;9.40;99.90
6738;DHT22;3406;49.902;8.596;2023-04-02T08:42:28;9.30;99.90
6738;DHT22;3406;49.902;8.596;2023-04-02T08:45:07;9.30;99.90
6738;DHT22;3406;49.902;8.596;2023-04-02T08:47:38;9.20;99.90
6738;DHT22;3406;49.902;8.596;2023-04-02T08:50:13;9.10;99.90
6738;DHT22;3406;49.902;8.596;2023-04-02T08:52:41;9.10;99.90
6738;DHT22;3406;49.902;8.596;2023-04-02T08:55:17;9.10;99.90
6738;DHT22;3406;49.902;8.596;2023-04-02T08:57:50;9.00;99.90
6738;DHT22;3406;49.902;8.596;2023-04-02T09:00:26;9.00;99.90
6738;DHT22;3406;49.902;8.596;2023-04-02T09:02:56;9.00;99.90
6738;DHT22;3406;49.902;8.596;2023-04-02T09:05:27;9.10;99.90
6738;DHT22;3406;49.902;8.596;2023-04-02T09:07:57;9.10;99.90
6738;DHT22;3406;49.902;8.596;2023-04-02T09:10:34;9.10;99.90
6738;DHT22;3406;49.902;8.596;2023-04-02T09:13:06;9.00;99.90
6738;DHT22;3406;49.902;8.596;2023-04-02T09:15:39;9.00;99.90
6738;DHT22;3406;49.902;8.596;2023-04-02T09:18:12;9.00;99.90
6738;DHT22;3406;49.902;8.596;2023-04-02T09:20:39;9.00;99.90
6738;DHT22;3406;49.902;8.596;2023-04-02T09:23:08;9.00;99.90
6738;DHT22;3406;49.902;8.596;2023-04-02T09:25:43;9.00;99.90
6738;DHT22;3406;49.902;8.596;2023-04-02T09:28:10;9.00;99.90
6738;DHT22;3406;49.902;8.596;2023-04-02T09:30:46;9.10;99.90
6738;DHT22;3406;49.902;8.596;2023-04-02T09:33:18;9.10;99.90
6738;DHT22;3406;49.902;8.596;2023-04-02T09:35:55;9.10;99.90
6738;DHT22;3406;49.902;8.596;2023-04-02T09:38:24;9.20;99.90
6738;DHT22;3406;49.902;8.596;2023-04-02T09:40:59;9.20;99.90
6738;DHT22;3406;49.902;8.596;2023-04-02T09:43:27;9.20;99.90
6738;DHT22;3406;49.902;8.596;2023-04-02T09:45:57;9.30;99.90
6738;DHT22;3406;49.902;8.596;2023-04-02T09:48:26;9.30;99.90
6738;DHT22;3406;49.902;8.596;2023-04-02T09:51:12;9.30;99.90
6738;DHT22;3406;49.902;8.596;2023-04-02T09:53:40;9.30;99.90
6738;DHT22;3406;49.902;8.596;2023-04-02T09:56:14;9.20;99.90
6738;DHT22;3406;49.902;8.596;2023-04-02T09:58:42;9.20;99.90
6738;DHT22;3406;49.902;8.596;2023-04-02T10:01:26;9.20;99.90
6738;DHT22;3406;49.902;8.596;2023-04-02T10:03:53;9.20;99.90
6738;DHT22;3406;49.902;8.596;2023-04-02T10:06:20;9.20;99.90
6738;DHT22;3406;49.902;8.596;2023-04-02T10:08:47;9.10;99.90
6738;DHT22;3406;49.902;8.596;2023-04-02T10:11:20;9.10;99.90
6738;DHT22;3406;49.902;8.596;2023-04-02T10:13:51;9.00;99.90
6738;DHT22;3406;49.902;8.596;2023-04-02T10:16:22;9.00;99.90
6738;DHT22;3406;49.902;8.596;2023-04-02T10:18:55;9.00;99.90
6738;DHT22;3406;49.902;8.596;2023-04-02T10:21:24;8.90;99.90
6738;DHT22;3406;49.902;8.596;2023-04-02T10:23:52;8.90;99.90
6738;DHT22;3406;49.902;8.596;2023-04-02T10:26:38;8.90;99.90
6738;DHT22;3406;49.902;8.596;2023-04-02T10:29:29;8.90;99.90
6738;DHT22;3406;49.902;8.596;2023-04-02T10:32:05;8.90;99.90
6738;DHT22;3406;49.902;8.596;2023-04-02T10:34:40;8.90;99.90
6738;DHT22;3406;49.902;8.596;2023-04-02T10:37:23;8.90;99.90
6738;DHT22;3406;49.902;8.596;2023-04-02T10:39:57;9.00;99.90
6738;DHT22;3406;49.902;8.596;2023-04-02T10:42:30;9.10;99.90
6738;DHT22;3406;49.902;8.596;2023-04-02T10:45:01;9.20;99.90
6738;DHT22;3406;49.902;8.596;2023-04-02T10:47:37;9.30;99.90
6738;DHT22;3406;49.902;8.596;2023-04-02T10:50:24;9.30;99.90
6738;DHT22;3406;49.902;8.596;2023-04-02T10:52:58;9.40;99.90
6738;DHT22;3406;49.902;8.596;2023-04-02T10:55:30;9.60;99.90
6738;DHT22;3406;49.902;8.596;2023-04-02T10:58:02;9.70;99.90
6738;DHT22;3406;49.902;8.596;2023-04-02T11:00:35;9.70;99.90
6738;DHT22;3406;49.902;8.596;2023-04-02T11:03:04;9.80;99.90
6738;DHT22;3406;49.902;8.596;2023-04-02T11:05:35;9.80;99.80
6738;DHT22;3406;49.902;8.596;2023-04-02T11:08:16;9.80;99.50
6738;DHT22;3406;49.902;8.596;2023-04-02T11:10:47;9.80;99.30
6738;DHT22;3406;49.902;8.596;2023-04-02T11:13:20;9.80;98.90
6738;DHT22;3406;49.902;8.596;2023-04-02T11:15:50;9.90;98.60
6738;DHT22;3406;49.902;8.596;2023-04-02T11:18:26;9.80;98.00
6738;DHT22;3406;49.902;8.596;2023-04-02T11:20:58;9.80;98.00
6738;DHT22;3406;49.902;8.596;2023-04-02T11:23:28;9.90;97.80
6738;DHT22;3406;49.902;8.596;2023-04-02T11:26:36;9.80;97.40
6738;DHT22;3406;49.902;8.596;2023-04-02T11:29:11;9.80;97.00
6738;DHT22;3406;49.902;8.596;2023-04-02T11:31:39;9.70;96.90
6738;DHT22;3406;49.902;8.596;2023-04-02T11:34:11;9.70;96.60
6738;DHT22;3406;49.902;8.596;2023-04-02T11:37:01;9.70;96.50
6738;DHT22;3406;49.902;8.596;2023-04-02T11:39:46;9.70;96.40
6738;DHT22;3406;49.902;8.596;2023-04-02T11:42:26;9.70;96.00
6738;DHT22;3406;49.902;8.596;2023-04-02T11:44:57;9.60;95.70
6738;DHT22;3406;49.902;8.596;2023-04-02T11:47:26;9.70;95.70
6738;DHT22;3406;49.902;8.596;2023-04-02T11:50:00;9.70;95.60
6738;DHT22;3406;49.902;8.596;2023-04-02T11:52:34;9.70;95.50
6738;DHT22;3406;49.902;8.596;2023-04-02T11:55:20;9.80;95.30
6738;DHT22;3406;49.902;8.596;2023-04-02T11:58:09;9.80;94.90
6738;DHT22;3406;49.902;8.596;2023-04-02T12:01:01;9.80;94.60
6738;DHT22;3406;49.902;8.596;2023-04-02T12:03:48;9.80;94.30
6738;DHT22;3406;49.902;8.596;2023-04-02T12:06:26;9.70;94.10
6738;DHT22;3406;49.902;8.596;2023-04-02T12:09:02;9.70;93.90
6738;DHT22;3406;49.902;8.596;2023-04-02T12:11:34;9.60;93.70
6738;DHT22;3406;49.902;8.596;2023-04-02T12:14:05;9.60;93.70
6738;DHT22;3406;49.902;8.596;2023-04-02T12:16:34;9.50;93.50
6738;DHT22;3406;49.902;8.596;2023-04-02T12:19:01;9.50;93.50
6738;DHT22;3406;49.902;8.596;2023-04-02T12:21:33;9.50;93.40
6738;DHT22;3406;49.902;8.596;2023-04-02T12:24:00;9.50;93.50
6738;DHT22;3406;49.902;8.596;2023-04-02T12:26:33;9.60;93.40
6738;DHT22;3406;49.902;8.596;2023-04-02T12:29:24;9.60;93.20
6738;DHT22;3406;49.902;8.596;2023-04-02T12:31:53;9.50;93.00
6738;DHT22;3406;49.902;8.596;2023-04-02T12:34:22;9.50;92.90
6738;DHT22;3406;49.902;8.596;2023-04-02T12:36:51;9.40;92.70
6738;DHT22;3406;49.902;8.596;2023-04-02T12:39:18;9.40;92.70
6738;DHT22;3406;49.902;8.596;2023-04-02T12:41:45;9.30;92.30
6738;DHT22;3406;49.902;8.596;2023-04-02T12:44:13;9.30;92.10
6738;DHT22;3406;49.902;8.596;2023-04-02T12:46:42;9.20;92.00
6738;DHT22;3406;49.902;8.596;2023-04-02T12:52:03;9.20;92.00
6738;DHT22;3406;49.902;8.596;2023-04-02T12:54:35;9.20;91.80
6738;DHT22;3406;49.902;8.596;2023-04-02T12:57:27;9.10;91.60
6738;DHT22;3406;49.902;8.596;2023-04-02T12:59:56;9.10;91.30
6738;DHT22;3406;49.902;8.596;2023-04-02T13:02:25;9.00;91.30
6738;DHT22;3406;49.902;8.596;2023-04-02T13:04:55;9.00;91.20
6738;DHT22;3406;49.902;8.596;2023-04-02T13:07:26;9.00;91.20
6738;DHT22;3406;49.902;8.596;2023-04-02T13:09:55;9.00;91.20
6738;DHT22;3406;49.902;8.596;2023-04-02T13:12:24;9.00;91.10
6738;DHT22;3406;49.902;8.596;2023-04-02T13:14:53;9.00;91.00
6738;DHT22;3406;49.902;8.596;2023-04-02T13:17:36;9.00;91.00
6738;DHT22;3406;49.902;8.596;2023-04-02T13:20:29;9.00;91.00
6738;DHT22;3406;49.902;8.596;2023-04-02T13:22:58;9.00;91.20
6738;DHT22;3406;49.902;8.596;2023-04-02T13:25:28;8.90;90.70
6738;DHT22;3406;49.902;8.596;2023-04-02T13:27:55;8.90;90.60
6738;DHT22;3406;49.902;8.596;2023-04-02T13:30:25;8.90;90.50
6738;DHT22;3406;49.902;8.596;2023-04-02T13:32:52;8.90;90.50
6738;DHT22;3406;49.902;8.596;2023-04-02T13:35:18;8.90;90.40
6738;DHT22;3406;49.902;8.596;2023-04-02T13:37:47;8.90;90.40
6738;DHT22;3406;49.902;8.596;2023-04-02T13:40:15;8.90;90.40
6738;DHT22;3406;49.902;8.596;2023-04-02T13:42:42;8.90;90.40
6738;DHT22;3406;49.902;8.596;2023-04-02T13:45:19;8.90;90.30
6738;DHT22;3406;49.902;8.596;2023-04-02T13:47:47;8.80;90.00
6738;DHT22;3406;49.902;8.596;2023-04-02T13:50:15;8.70;90.30
6738;DHT22;3406;49.902;8.596;2023-04-02T13:52:42;8.70;90.10
6738;DHT22;3406;49.902;8.596;2023-04-02T13:55:11;8.70;90.00
6738;DHT22;3406;49.902;8.596;2023-04-02T13:57:38;8.60;90.00
6738;DHT22;3406;49.902;8.596;2023-04-02T14:00:06;8.60;89.90
6738;DHT22;3406;49.902;8.596;2023-04-02T14:02:33;8.60;90.00
6738;DHT22;3406;49.902;8.596;2023-04-02T14:05:09;8.50;89.80
6738;DHT22;3406;49.902;8.596;2023-04-02T14:07:47;8.50;89.90
6738;DHT22;3406;49.902;8.596;2023-04-02T14:10:27;8.50;89.90
6738;DHT22;3406;49.902;8.596;2023-04-02T14:13:10;8.50;89.60
6738;DHT22;3406;49.902;8.596;2023-04-02T14:15:48;8.50;89.40
6738;DHT22;3406;49.902;8.596;2023-04-02T14:18:27;8.40;89.10
6738;DHT22;3406;49.902;8.596;2023-04-02T14:21:08;8.30;89.00
6738;DHT22;3406;49.902;8.596;2023-04-02T14:23:50;8.30;88.80
6738;DHT22;3406;49.902;8.596;2023-04-02T14:26:25;8.20;88.60
6738;DHT22;3406;49.902;8.596;2023-04-02T14:29:00;8.20;88.50
6738;DHT22;3406;49.902;8.596;2023-04-02T14:31:32;8.20;88.90
6738;DHT22;3406;49.902;8.596;2023-04-02T14:34:05;8.20;88.20
6738;DHT22;3406;49.902;8.596;2023-04-02T14:36:43;8.20;88.10
6738;DHT22;3406;49.902;8.596;2023-04-02T14:39:19;8.20;87.90
6738;DHT22;3406;49.902;8.596;2023-04-02T14:41:52;8.30;87.90
6738;DHT22;3406;49.902;8.596;2023-04-02T14:44:23;8.30;87.90
6738;DHT22;3406;49.902;8.596;2023-04-02T14:46:53;8.30;87.90
6738;DHT22;3406;49.902;8.596;2023-04-02T14:49:24;8.30;87.60
6738;DHT22;3406;49.902;8.596;2023-04-02T14:51:56;8.30;87.10
6738;DHT22;3406;49.902;8.596;2023-04-02T14:54:30;8.20;87.00
6738;DHT22;3406;49.902;8.596;2023-04-02T14:57:05;8.20;86.90
6738;DHT22;3406;49.902;8.596;2023-04-02T14:59:38;8.20;87.00
6738;DHT22;3406;49.902;8.596;2023-04-02T15:02:21;8.20;86.70
6738;DHT22;3406;49.902;8.596;2023-04-02T15:04:53;8.20;86.60
6738;DHT22;3406;49.902;8.596;2023-04-02T15:07:24;8.20;86.40
6738;DHT22;3406;49.902;8.596;2023-04-02T15:09:58;8.20;86.50
6738;DHT22;3406;49.902;8.596;2023-04-02T15:12:30;8.20;86.50
6738;DHT22;3406;49.902;8.596;2023-04-02T15:15:02;8.20;86.10
6738;DHT22;3406;49.902;8.596;2023-04-02T15:17:29;8.10;85.40
6738;DHT22;3406;49.902;8.596;2023-04-02T15:20:01;8.10;85.20
6738;DHT22;3406;49.902;8.596;2023-04-02T15:22:34;8.00;85.20
6738;DHT22;3406;49.902;8.596;2023-04-02T15:25:15;8.00;85.00
6738;DHT22;3406;49.902;8.596;2023-04-02T15:27:56;8.00;84.80
6738;DHT22;3406;49.902;8.596;2023-04-02T15:30:28;7.90;84.80
6738;DHT22;3406;49.902;8.596;2023-04-02T15:33:07;7.90;84.40
6738;DHT22;3406;49.902;8.596;2023-04-02T15:35:46;7.80;84.20
6738;DHT22;3406;49.902;8.596;2023-04-02T15:38:19;7.80;83.90
6738;DHT22;3406;49.902;8.596;2023-04-02T15:40:56;7.70;83.60
6738;DHT22;3406;49.902;8.596;2023-04-02T15:43:28;7.70;83.40
6738;DHT22;3406;49.902;8.596;2023-04-02T15:46:08;7.60;83.40
6738;DHT22;3406;49.902;8.596;2023-04-02T15:48:58;7.60;83.20
6738;DHT22;3406;49.902;8.596;2023-04-02T15:51:44;7.60;83.10
6738;DHT22;3406;49.902;8.596;2023-04-02T15:54:31;7.50;83.00
6738;DHT22;3406;49.902;8.596;2023-04-02T15:57:06;7.50;83.10
6738;DHT22;3406;49.902;8.596;2023-04-02T15:59:55;7.50;82.80
6738;DHT22;3406;49.902;8.596;2023-04-02T16:02:49;7.50;82.40
6738;DHT22;3406;49.902;8.596;2023-04-02T16:05:21;7.50;82.30
6738;DHT22;3406;49.902;8.596;2023-04-02T16:08:17;7.40;81.90
6738;DHT22;3406;49.902;8.596;2023-04-02T16:10:47;7.40;81.90
6738;DHT22;3406;49.902;8.596;2023-04-02T16:13:17;7.40;81.50
6738;DHT22;3406;49.902;8.596;2023-04-02T16:15:50;7.40;81.50
6738;DHT22;3406;49.902;8.596;2023-04-02T16:18:25;7.40;81.40
6738;DHT22;3406;49.902;8.596;2023-04-02T16:20:53;7.40;81.00
6738;DHT22;3406;49.902;8.596;2023-04-02T16:23:27;7.40;80.80
6738;DHT22;3406;49.902;8.596;2023-04-02T16:26:00;7.40;80.60
6738;DHT22;3406;49.902;8.596;2023-04-02T16:28:33;7.40;80.40
6738;DHT22;3406;49.902;8.596;2023-04-02T16:31:06;7.40;80.10
6738;DHT22;3406;49.902;8.596;2023-04-02T16:33:46;7.40;80.00
6738;DHT22;3406;49.902;8.596;2023-04-02T16:36:23;7.40;80.00
6738;DHT22;3406;49.902;8.596;2023-04-02T16:38:57;7.40;79.90
6738;DHT22;3406;49.902;8.596;2023-04-02T16:41:34;7.40;79.90
6738;DHT22;3406;49.902;8.596;2023-04-02T16:44:17;7.40;79.80
6738;DHT22;3406;49.902;8.596;2023-04-02T16:46:54;7.30;79.50
6738;DHT22;3406;49.902;8.596;2023-04-02T16:49:25;7.30;79.30